Time;durP1;ratioP1;P1;durP2;ratioP2;P2;SDS_P1;SDS_P2;PMS_P1;PMS_P2;Temp;Humidity;BMP_temperature;BMP_pressure;BME280_temperature;BME280_humidity;BME280_pressure;Samples;Min_cycle;Max_cycle;Signal;HPM_P1;HPM_P2
2022/09/07 00:01:00;;;;;;;11.45;8.63;;;20.20;99.90;;;;;;4996030;28;20046;-76
2022/09/07 00:03:26;;;;;;;9.77;8.80;;;20.20;99.90;;;;;;4999670;28;20045;-75
2022/09/07 00:05:52;;;;;;;12.13;8.32;;;20.10;99.90;;;;;;4997560;28;20530;-76
2022/09/07 00:08:20;;;;;;;10.10;9.00;;;20.10;99.90;;;;;;4998335;28;20053;-76
2022/09/07 00:10:59;;;;;;;10.70;9.32;;;20.10;99.90;;;;;;4997136;28;20183;-76
2022/09/07 00:13:28;;;;;;;11.93;9.18;;;20.10;99.90;;;;;;4997638;28;20580;-74
2022/09/07 00:15:54;;;;;;;11.85;8.57;;;20.00;99.90;;;;;;4995821;28;20091;-76
2022/09/07 00:18:20;;;;;;;10.52;9.43;;;20.00;99.90;;;;;;4997605;28;20050;-76
2022/09/07 00:20:45;;;;;;;14.52;8.57;;;20.10;99.90;;;;;;4997489;28;20092;-74
2022/09/07 00:23:11;;;;;;;9.65;8.52;;;20.10;99.90;;;;;;4998035;28;20045;-75
2022/09/07 00:25:38;;;;;;;12.40;9.27;;;20.00;99.90;;;;;;5003224;28;20041;-76
2022/09/07 00:28:05;;;;;;;;;;;20.10;99.90;;;;;;5004035;28;20100;-75
2022/09/07 00:30:31;;;;;;;11.88;8.20;;;20.00;99.90;;;;;;4997575;28;20012;-75
2022/09/07 00:32:57;;;;;;;9.63;8.65;;;20.00;99.90;;;;;;4997507;28;20393;-75
2022/09/07 00:35:22;;;;;;;9.57;8.43;;;20.10;99.90;;;;;;4998556;28;20034;-75
2022/09/07 00:37:48;;;;;;;9.93;8.32;;;20.10;99.90;;;;;;4997875;28;20038;-76
2022/09/07 00:40:13;;;;;;;11.52;8.35;;;20.00;99.90;;;;;;4983921;28;20049;-76
2022/09/07 00:42:39;;;;;;;10.07;8.50;;;20.10;99.90;;;;;;5000134;28;20063;-76
2022/09/07 00:45:18;;;;;;;10.07;8.13;;;20.10;99.90;;;;;;4994167;28;20148;-75
2022/09/07 00:47:43;;;;;;;11.35;8.77;;;20.10;99.90;;;;;;4996572;28;20042;-75
2022/09/07 00:50:32;;;;;;;12.63;8.38;;;20.10;99.90;;;;;;4996478;28;20080;-76
2022/09/07 00:53:07;;;;;;;10.70;8.80;;;20.10;99.90;;;;;;4995464;28;20073;-76
2022/09/07 00:55:34;;;;;;;11.23;9.25;;;20.10;99.90;;;;;;5005322;28;20058;-75
2022/09/07 00:58:01;;;;;;;10.68;9.57;;;20.10;99.90;;;;;;5001524;28;20122;-76
2022/09/07 01:00:27;;;;;;;12.43;10.30;;;20.10;99.90;;;;;;5001471;28;20165;-76
2022/09/07 01:02:55;;;;;;;14.20;10.70;;;20.00;99.90;;;;;;4994962;28;20088;-75
2022/09/07 01:05:24;;;;;;;;;;;19.90;99.90;;;;;;5005934;28;20125;-74
2022/09/07 01:07:49;;;;;;;14.50;11.52;;;19.80;99.90;;;;;;5008992;28;19925;-75
2022/09/07 01:10:15;;;;;;;13.55;11.30;;;19.60;99.90;;;;;;5005117;28;20137;-72
2022/09/07 01:12:42;;;;;;;13.27;11.50;;;19.60;99.90;;;;;;5002325;28;20140;-75
2022/09/07 01:15:08;;;;;;;16.58;11.82;;;19.60;99.90;;;;;;5004110;28;20133;-76
2022/09/07 01:18:01;;;;;;;15.68;12.55;;;19.50;99.90;;;;;;5003433;28;20078;-76
2022/09/07 01:20:33;;;;;;;17.40;14.63;;;19.50;99.90;;;;;;4999934;28;20105;-76
2022/09/07 01:23:15;;;;;;;16.25;12.80;;;19.50;99.90;;;;;;5003506;28;20038;-77
2022/09/07 01:26:15;;;;;;;11.80;10.70;;;19.40;99.90;;;;;;5006730;28;20042;-75
2022/09/07 01:28:42;;;;;;;14.40;10.57;;;19.40;99.90;;;;;;5005957;28;20045;-76
2022/09/07 01:31:38;;;;;;;10.45;9.45;;;19.30;99.90;;;;;;4996259;28;20559;-76
2022/09/07 01:34:24;;;;;;;11.18;9.38;;;19.30;99.90;;;;;;5002537;28;20081;-76
2022/09/07 01:36:59;;;;;;;12.10;10.10;;;19.20;99.90;;;;;;5008621;28;20041;-75
2022/09/07 01:39:36;;;;;;;12.35;11.15;;;19.10;99.90;;;;;;5003335;28;20694;-76
2022/09/07 01:42:12;;;;;;;12.10;10.23;;;19.10;99.90;;;;;;5005390;28;20042;-76
2022/09/07 01:44:52;;;;;;;10.37;9.30;;;19.10;99.90;;;;;;5012817;28;20489;-76
2022/09/07 01:47:43;;;;;;;8.23;7.20;;;19.10;99.90;;;;;;5001405;28;20125;-75
2022/09/07 01:50:43;;;;;;;8.35;6.90;;;19.10;99.90;;;;;;4985751;28;20046;-75
2022/09/07 01:53:40;;;;;;;6.00;5.18;;;19.10;99.90;;;;;;5007357;28;20548;-76
2022/09/07 01:56:11;;;;;;;5.95;5.28;;;19.20;99.90;;;;;;4995043;28;20060;-76
2022/09/07 01:58:37;;;;;;;7.32;6.03;;;19.20;99.90;;;;;;5003470;28;20038;-76
2022/09/07 02:01:22;;;;;;;7.20;6.32;;;19.30;99.90;;;;;;4992358;28;20099;-76
2022/09/07 02:03:59;;;;;;;6.97;5.93;;;19.30;99.90;;;;;;5014982;28;20073;-76
2022/09/07 02:06:38;;;;;;;7.47;6.70;;;19.40;99.90;;;;;;5010293;28;20123;-77
2022/09/07 02:09:11;;;;;;;7.88;7.07;;;19.40;99.90;;;;;;4999779;28;20057;-74
2022/09/07 02:11:41;;;;;;;9.20;6.50;;;19.40;99.90;;;;;;5002706;28;20053;-76
2022/09/07 02:14:24;;;;;;;8.18;6.75;;;19.40;99.90;;;;;;4989530;28;20050;-76
2022/09/07 02:17:19;;;;;;;7.70;6.97;;;19.50;99.90;;;;;;4987204;28;20511;-76
2022/09/07 02:19:52;;;;;;;8.07;6.53;;;19.50;99.90;;;;;;4997400;28;20065;-76
2022/09/07 02:22:21;;;;;;;7.55;6.63;;;19.50;99.90;;;;;;4990611;28;20049;-76
2022/09/07 02:24:52;;;;;;;8.30;6.80;;;19.50;99.90;;;;;;5012758;28;20042;-76
2022/09/07 02:27:24;;;;;;;7.65;6.88;;;19.50;99.90;;;;;;4986168;28;20200;-76
2022/09/07 02:29:50;;;;;;;9.55;6.75;;;19.50;99.90;;;;;;5007122;28;20049;-75
2022/09/07 02:32:17;;;;;;;8.98;6.45;;;19.40;99.90;;;;;;4999165;28;20045;-77
2022/09/07 02:34:43;;;;;;;9.43;7.47;;;19.40;99.90;;;;;;5005521;28;20622;-76
2022/09/07 02:37:11;;;;;;;8.43;7.07;;;19.40;99.90;;;;;;4990321;28;20376;-76
2022/09/07 02:39:37;;;;;;;9.05;7.30;;;19.40;99.90;;;;;;5007613;28;20045;-75
2022/09/07 02:42:03;;;;;;;10.48;8.50;;;19.40;99.90;;;;;;4980387;28;20048;-76
2022/09/07 02:44:33;;;;;;;9.52;7.47;;;19.40;99.90;;;;;;4983139;28;20056;-75
2022/09/07 02:46:59;;;;;;;8.68;7.80;;;19.40;99.90;;;;;;5001939;28;20046;-76
2022/09/07 02:50:03;;;;;;;9.68;7.82;;;19.40;99.90;;;;;;5006532;28;20033;-76
2022/09/07 02:52:47;;;;;;;8.13;7.32;;;19.40;99.90;;;;;;4990983;28;20084;-75
2022/09/07 02:55:32;;;;;;;10.27;9.25;;;19.30;99.90;;;;;;4998132;28;20142;-76
2022/09/07 02:58:34;;;;;;;14.45;11.13;;;19.30;99.90;;;;;;5004304;28;20045;-76
2022/09/07 03:01:30;;;;;;;12.90;11.70;;;19.30;99.90;;;;;;5016481;23;20052;-75
2022/09/07 03:04:09;;;;;;;13.10;11.70;;;19.20;99.90;;;;;;5003104;28;20128;-75
2022/09/07 03:06:39;;;;;;;15.02;13.52;;;19.20;99.90;;;;;;5014159;28;20329;-75
2022/09/07 03:09:17;;;;;;;14.35;13.02;;;19.10;99.90;;;;;;5046745;28;20048;-76
2022/09/07 03:11:43;;;;;;;17.83;16.10;;;19.20;99.90;;;;;;5015395;28;20498;-76
2022/09/07 03:14:23;;;;;;;18.15;16.35;;;19.10;99.90;;;;;;5010692;28;20050;-75
2022/09/07 03:16:51;;;;;;;17.55;16.02;;;19.10;99.90;;;;;;5035077;28;20045;-75
2022/09/07 03:19:17;;;;;;;17.52;15.60;;;19.00;99.90;;;;;;5047359;28;20099;-76
2022/09/07 03:21:43;;;;;;;18.27;16.63;;;19.00;99.90;;;;;;5017773;28;20064;-76
2022/09/07 03:24:09;;;;;;;16.92;15.32;;;19.00;99.90;;;;;;5024799;28;20444;-76
2022/09/07 03:26:39;;;;;;;18.40;16.75;;;19.00;99.90;;;;;;5024471;28;20472;-74
2022/09/07 03:29:05;;;;;;;18.13;16.42;;;19.10;99.90;;;;;;5014751;28;20495;-75
2022/09/07 03:31:34;;;;;;;19.95;18.35;;;19.00;99.90;;;;;;5024525;28;20048;-76
2022/09/07 03:34:00;;;;;;;17.38;15.68;;;19.00;99.90;;;;;;5024190;28;20493;-76
2022/09/07 03:36:28;;;;;;;16.80;15.25;;;19.00;99.90;;;;;;5042594;28;20048;-75
2022/09/07 03:38:53;;;;;;;;;;;19.00;99.90;;;;;;5013778;28;20514;-76
2022/09/07 03:41:19;;;;;;;19.58;17.88;;;18.90;99.90;;;;;;5047380;28;19924;-76
2022/09/07 03:43:45;;;;;;;19.58;17.67;;;19.00;99.90;;;;;;5033094;28;20032;-75
2022/09/07 03:46:10;;;;;;;21.63;19.58;;;18.90;99.90;;;;;;5015599;28;20210;-75
2022/09/07 03:48:38;;;;;;;21.17;18.92;;;18.90;99.90;;;;;;5035352;28;20112;-75
2022/09/07 03:51:07;;;;;;;20.23;18.27;;;18.90;99.90;;;;;;5043024;28;20040;-75
2022/09/07 03:53:37;;;;;;;19.90;18.25;;;18.90;99.90;;;;;;5036839;28;20507;-75
2022/09/07 03:56:08;;;;;;;19.92;18.02;;;18.90;99.90;;;;;;5042039;28;20057;-75
2022/09/07 03:58:34;;;;;;;19.60;17.80;;;18.90;99.90;;;;;;5048094;28;20037;-75
2022/09/07 04:01:08;;;;;;;20.02;18.15;;;18.90;99.90;;;;;;5022243;28;20049;-75
2022/09/07 04:03:34;;;;;;;21.08;18.98;;;18.90;99.90;;;;;;5021332;28;20037;-75
2022/09/07 04:06:01;;;;;;;20.30;18.17;;;18.90;99.90;;;;;;5042081;28;20045;-75
2022/09/07 04:08:28;;;;;;;19.77;17.98;;;18.90;99.90;;;;;;5046080;28;20048;-75
2022/09/07 04:10:59;;;;;;;18.25;16.55;;;18.90;99.90;;;;;;5029106;28;20045;-75
2022/09/07 04:13:26;;;;;;;20.90;19.02;;;18.90;99.90;;;;;;5042381;28;20070;-75
2022/09/07 04:15:52;;;;;;;21.88;19.80;;;18.80;99.90;;;;;;5045270;28;20493;-75
2022/09/07 04:18:18;;;;;;;20.95;18.92;;;18.80;99.90;;;;;;5045424;28;20116;-75
2022/09/07 04:20:44;;;;;;;22.95;20.73;;;18.80;99.90;;;;;;5045035;28;20546;-75
2022/09/07 04:23:10;;;;;;;21.38;19.38;;;18.80;99.90;;;;;;5043069;28;20045;-74
2022/09/07 04:25:36;;;;;;;21.48;19.42;;;18.70;99.90;;;;;;5026880;28;20040;-76
2022/09/07 04:28:02;;;;;;;21.20;19.30;;;18.70;99.90;;;;;;5034375;28;20048;-76
2022/09/07 04:30:28;;;;;;;21.48;19.60;;;18.70;99.90;;;;;;5046525;28;20109;-75
2022/09/07 04:32:54;;;;;;;21.50;19.60;;;18.70;99.90;;;;;;5044390;28;20455;-76
2022/09/07 04:35:19;;;;;;;20.75;18.85;;;18.70;99.90;;;;;;5044695;28;20049;-75
2022/09/07 04:37:45;;;;;;;20.83;19.05;;;18.70;99.90;;;;;;5046896;28;20033;-74
2022/09/07 04:40:11;;;;;;;21.90;19.80;;;18.70;99.90;;;;;;5045196;28;20789;-75
2022/09/07 04:42:36;;;;;;;22.98;20.88;;;18.60;99.90;;;;;;5026485;28;20068;-76
2022/09/07 04:45:03;;;;;;;21.92;20.08;;;18.60;99.90;;;;;;5044785;28;20392;-75
2022/09/07 04:47:29;;;;;;;21.48;19.60;;;18.60;99.90;;;;;;5043236;28;20063;-76
2022/09/07 04:49:55;;;;;;;23.15;21.20;;;18.60;99.90;;;;;;5046150;28;20041;-76
2022/09/07 04:52:21;;;;;;;22.58;20.48;;;18.60;99.90;;;;;;5044096;28;20083;-75
2022/09/07 04:54:49;;;;;;;21.67;19.88;;;18.50;99.90;;;;;;5041522;28;20037;-75
2022/09/07 04:57:15;;;;;;;25.20;23.00;;;18.60;99.90;;;;;;5040540;28;20049;-76
2022/09/07 04:59:41;;;;;;;24.23;21.90;;;18.60;99.90;;;;;;5042812;28;20045;-76
2022/09/07 05:02:06;;;;;;;24.83;22.52;;;18.50;99.90;;;;;;5044945;28;20060;-75
2022/09/07 05:04:35;;;;;;;22.98;20.77;;;18.50;99.90;;;;;;5030029;28;20053;-76
2022/09/07 05:07:00;;;;;;;24.10;22.05;;;18.50;99.90;;;;;;5040913;28;20596;-75
2022/09/07 05:09:26;;;;;;;24.02;21.75;;;18.60;99.90;;;;;;5014113;28;20085;-75
2022/09/07 05:11:52;;;;;;;22.60;20.67;;;18.50;99.90;;;;;;5040514;28;20076;-75
2022/09/07 05:14:17;;;;;;;22.48;20.45;;;18.60;99.90;;;;;;5025375;28;20037;-75
2022/09/07 05:16:43;;;;;;;24.08;21.75;;;18.60;99.90;;;;;;5043991;28;20132;-75
2022/09/07 05:19:11;;;;;;;24.02;21.83;;;18.60;99.90;;;;;;5040561;28;20052;-75
2022/09/07 05:21:36;;;;;;;23.42;21.33;;;18.60;99.90;;;;;;5028133;28;20095;-75
2022/09/07 05:24:03;;;;;;;23.17;20.95;;;18.60;99.90;;;;;;5034598;28;20037;-75
2022/09/07 05:26:31;;;;;;;23.53;21.43;;;18.60;99.90;;;;;;5035289;28;20072;-75
2022/09/07 05:29:01;;;;;;;24.73;22.65;;;18.60;99.90;;;;;;5033968;28;20361;-75
2022/09/07 05:31:27;;;;;;;25.50;23.20;;;18.60;99.90;;;;;;5037723;28;20045;-74
2022/09/07 05:33:57;;;;;;;23.70;21.65;;;18.60;99.90;;;;;;5037325;28;20853;-73
2022/09/07 05:36:25;;;;;;;24.35;22.02;;;18.60;99.90;;;;;;5039633;28;20124;-74
2022/09/07 05:38:52;;;;;;;23.38;21.23;;;18.60;99.90;;;;;;5030667;28;20115;-74
2022/09/07 05:41:20;;;;;;;;;;;18.70;99.90;;;;;;5028528;28;20041;-71
2022/09/07 05:43:46;;;;;;;22.63;20.70;;;18.60;99.90;;;;;;5045072;28;20007;-73
2022/09/07 05:46:13;;;;;;;25.63;23.33;;;18.60;99.90;;;;;;5026124;28;20131;-73
2022/09/07 05:48:40;;;;;;;23.88;21.63;;;18.60;99.90;;;;;;5041091;28;20045;-74
2022/09/07 05:51:07;;;;;;;26.27;23.98;;;18.70;99.90;;;;;;5018043;28;20128;-74
2022/09/07 05:53:34;;;;;;;24.30;22.02;;;18.70;99.90;;;;;;5030506;28;20048;-74
2022/09/07 05:56:05;;;;;;;25.58;23.23;;;18.70;99.90;;;;;;5035321;28;20037;-74
2022/09/07 05:58:32;;;;;;;;;;;18.70;99.90;;;;;;5035497;28;20124;-73
2022/09/07 06:01:04;;;;;;;;;;;18.70;99.90;;;;;;5052901;28;19931;-73
2022/09/07 06:03:34;;;;;;;24.27;21.98;;;18.70;99.90;;;;;;5057906;28;20030;-73
2022/09/07 06:06:06;;;;;;;23.95;21.67;;;18.70;99.90;;;;;;5033045;28;20094;-73
2022/09/07 06:08:37;;;;;;;24.52;22.10;;;18.80;99.90;;;;;;5045669;28;20487;-75
2022/09/07 06:11:11;;;;;;;24.80;22.52;;;18.90;99.90;;;;;;5024521;28;20045;-74
2022/09/07 06:13:40;;;;;;;38.60;34.95;;;18.90;99.90;;;;;;5026300;28;20048;-73
2022/09/07 06:16:07;;;;;;;40.15;36.45;;;19.00;99.90;;;;;;5035278;28;21532;-72
2022/09/07 06:18:39;;;;;;;32.10;29.20;;;19.00;99.90;;;;;;5037236;28;20391;-73
2022/09/07 06:21:11;;;;;;;27.58;25.13;;;19.10;99.90;;;;;;5029946;28;20044;-74
2022/09/07 06:23:39;;;;;;;26.33;23.85;;;19.10;99.90;;;;;;5024733;28;20037;-74
2022/09/07 06:26:06;;;;;;;25.65;23.35;;;19.10;99.90;;;;;;5047447;28;20044;-73
2022/09/07 06:28:34;;;;;;;25.50;23.30;;;19.20;99.90;;;;;;5045869;28;20080;-74
2022/09/07 06:31:06;;;;;;;24.58;22.23;;;19.20;99.90;;;;;;5048944;28;20063;-74
2022/09/07 06:33:33;;;;;;;24.48;22.20;;;19.30;99.90;;;;;;5035742;28;20098;-73
2022/09/07 06:36:09;;;;;;;26.30;23.88;;;19.30;99.90;;;;;;5054983;28;20056;-73
2022/09/07 06:38:37;;;;;;;24.55;22.25;;;19.20;99.90;;;;;;5030160;28;20041;-75
2022/09/07 06:41:04;;;;;;;23.02;20.92;;;19.30;99.90;;;;;;5044429;28;20037;-73
2022/09/07 06:43:31;;;;;;;;;;;19.30;99.90;;;;;;5046252;28;20037;-74
2022/09/07 06:45:57;;;;;;;25.52;23.13;;;19.30;99.90;;;;;;5046930;28;19928;-74
2022/09/07 06:48:24;;;;;;;26.25;23.73;;;19.30;99.90;;;;;;5046387;28;20399;-75
2022/09/07 06:51:00;;;;;;;25.98;23.38;;;19.30;99.90;;;;;;5041730;28;20025;-76
2022/09/07 06:53:29;;;;;;;27.23;24.42;;;19.30;99.90;;;;;;5043744;28;20099;-74
2022/09/07 06:55:55;;;;;;;25.08;22.67;;;19.30;99.90;;;;;;5038904;28;20183;-76
2022/09/07 06:58:21;;;;;;;26.35;23.75;;;19.20;99.90;;;;;;5040425;28;20052;-75
2022/09/07 07:00:47;;;;;;;24.85;22.33;;;19.20;99.90;;;;;;5028554;28;20048;-75
2022/09/07 07:03:13;;;;;;;24.08;21.88;;;19.30;99.90;;;;;;5025972;28;20052;-75
2022/09/07 07:05:39;;;;;;;24.58;22.27;;;19.30;99.90;;;;;;5043086;28;20400;-75
2022/09/07 07:08:04;;;;;;;24.30;22.00;;;19.30;99.90;;;;;;5045871;28;20500;-76
2022/09/07 07:10:30;;;;;;;23.10;20.75;;;19.30;99.90;;;;;;5044859;28;20064;-75
2022/09/07 07:12:56;;;;;;;23.20;21.13;;;19.40;99.90;;;;;;5046736;28;20053;-76
2022/09/07 07:15:27;;;;;;;23.50;21.00;;;19.40;99.90;;;;;;5043083;28;20174;-75
2022/09/07 07:17:53;;;;;;;22.27;20.08;;;19.40;99.90;;;;;;5023153;28;20412;-75
2022/09/07 07:20:19;;;;;;;22.45;20.10;;;19.40;99.90;;;;;;5021950;28;20672;-74
2022/09/07 07:22:49;;;;;;;21.38;19.42;;;19.40;99.90;;;;;;5024951;28;20083;-74
2022/09/07 07:25:15;;;;;;;21.55;19.50;;;19.40;99.90;;;;;;5036271;28;20075;-75
2022/09/07 07:27:41;;;;;;;21.30;19.13;;;19.40;99.90;;;;;;5043837;28;20077;-73
2022/09/07 07:30:07;;;;;;;22.02;19.83;;;19.40;99.90;;;;;;5044748;28;20048;-72
2022/09/07 07:32:33;;;;;;;23.52;21.15;;;19.50;99.90;;;;;;5044308;28;20132;-73
2022/09/07 07:37:42;;;;;;;21.73;19.35;;;19.50;99.90;;;;;;5024813;28;20492;-75
2022/09/07 07:40:11;;;;;;;20.95;19.00;;;19.50;99.90;;;;;;5027318;28;20206;-75
2022/09/07 07:42:38;;;;;;;20.85;18.85;;;19.50;99.90;;;;;;5027500;28;20052;-75
2022/09/07 07:45:08;;;;;;;22.10;20.00;;;19.40;99.90;;;;;;5041501;28;20163;-74
2022/09/07 07:47:34;;;;;;;23.35;21.05;;;19.40;99.90;;;;;;5040877;28;20033;-75
2022/09/07 07:50:05;;;;;;;21.13;19.33;;;19.40;99.90;;;;;;5025852;28;20198;-75
2022/09/07 07:52:38;;;;;;;20.90;18.90;;;19.40;99.90;;;;;;5041949;28;20049;-75
2022/09/07 07:55:05;;;;;;;22.13;20.02;;;19.50;99.90;;;;;;5045321;28;20428;-74
2022/09/07 07:57:31;;;;;;;22.05;19.75;;;19.40;99.90;;;;;;5045959;28;20041;-74
2022/09/07 07:59:57;;;;;;;32.65;27.15;;;19.40;99.90;;;;;;5028641;28;20044;-72
2022/09/07 08:02:23;;;;;;;38.92;30.52;;;19.40;99.90;;;;;;5026124;28;20056;-72
2022/09/07 08:04:50;;;;;;;41.53;33.88;;;19.40;99.90;;;;;;5042163;28;20052;-72
2022/09/07 08:07:16;;;;;;;36.05;32.17;;;19.40;99.90;;;;;;5045314;28;20503;-73
2022/09/07 08:09:43;;;;;;;31.47;28.07;;;19.50;99.90;;;;;;5048163;28;20498;-74
2022/09/07 08:12:11;;;;;;;29.75;26.77;;;19.50;99.90;;;;;;5046431;28;20079;-73
2022/09/07 08:14:41;;;;;;;27.95;25.17;;;19.50;99.90;;;;;;5040588;28;20044;-73
2022/09/07 08:17:12;;;;;;;28.15;25.52;;;19.50;99.90;;;;;;5044903;28;20037;-73
2022/09/07 08:19:38;;;;;;;30.30;27.50;;;19.60;99.90;;;;;;5037192;28;20130;-73
2022/09/07 08:22:04;;;;;;;28.63;25.95;;;19.60;99.90;;;;;;5045148;28;20068;-74
2022/09/07 08:24:31;;;;;;;27.30;24.70;;;19.60;99.90;;;;;;5044600;28;20495;-74
2022/09/07 08:26:56;;;;;;;29.13;26.42;;;19.70;99.90;;;;;;5046618;28;20056;-75
2022/09/07 08:29:22;;;;;;;29.10;26.35;;;19.80;99.90;;;;;;5044467;28;20396;-76
2022/09/07 08:31:48;;;;;;;29.95;27.25;;;19.90;99.90;;;;;;5042430;28;20041;-75
2022/09/07 08:34:14;;;;;;;31.30;28.50;;;19.90;99.90;;;;;;5041338;28;20081;-74
2022/09/07 08:36:39;;;;;;;31.50;28.50;;;20.00;99.90;;;;;;5045627;28;20045;-75
2022/09/07 08:39:05;;;;;;;30.85;28.05;;;20.00;99.90;;;;;;5045615;28;20037;-74
2022/09/07 08:42:06;;;;;;;32.03;28.80;;;20.10;99.90;;;;;;5045631;28;20044;-75
2022/09/07 08:44:41;;;;;;;31.80;28.73;;;20.20;99.90;;;;;;5041669;28;20198;-74
2022/09/07 08:47:14;;;;;;;31.15;28.08;;;20.30;99.90;;;;;;5047237;28;20441;-75
2022/09/07 08:49:49;;;;;;;31.13;28.15;;;20.30;99.90;;;;;;5041970;28;20083;-75
2022/09/07 08:52:46;;;;;;;31.65;28.25;;;20.40;99.90;;;;;;5040416;28;20045;-77
2022/09/07 08:55:48;;;;;;;31.75;28.45;;;20.40;99.90;;;;;;5051679;28;20053;-76
2022/09/07 08:58:47;;;;;;;28.95;26.02;;;20.40;99.90;;;;;;5051304;28;20080;-76
2022/09/07 09:01:15;;;;;;;28.50;25.90;;;20.40;99.90;;;;;;5040572;28;20102;-76
2022/09/07 09:03:42;;;;;;;28.08;25.48;;;20.30;99.90;;;;;;5059552;28;20049;-78
2022/09/07 09:06:23;;;;;;;27.42;24.88;;;20.30;99.90;;;;;;5047766;28;20052;-80
2022/09/07 09:09:12;;;;;;;23.15;20.92;;;20.40;99.90;;;;;;5067043;28;20111;-78
2022/09/07 09:12:02;;;;;;;22.27;20.27;;;20.40;99.90;;;;;;5067644;28;20043;-77
2022/09/07 09:14:53;;;;;;;23.20;20.90;;;20.50;99.90;;;;;;5065806;28;20517;-77
2022/09/07 09:17:41;;;;;;;23.58;21.30;;;20.50;99.90;;;;;;5068445;28;20047;-76
2022/09/07 09:20:34;;;;;;;24.10;22.00;;;20.60;99.90;;;;;;5050302;28;20083;-78
2022/09/07 09:23:08;;;;;;;23.70;21.60;;;20.70;99.90;;;;;;5069778;28;20040;-76
2022/09/07 09:25:36;;;;;;;26.15;23.33;;;20.60;99.90;;;;;;5053480;28;20055;-77
2022/09/07 09:28:02;;;;;;;24.63;22.23;;;20.60;99.90;;;;;;5069354;28;20141;-77
2022/09/07 09:30:30;;;;;;;26.65;24.17;;;20.50;99.90;;;;;;5049585;28;20052;-76
2022/09/07 09:33:16;;;;;;;26.90;24.42;;;20.50;99.90;;;;;;5051406;28;20036;-77
2022/09/07 09:35:43;;;;;;;26.65;24.17;;;20.50;99.90;;;;;;5048539;28;20045;-77
2022/09/07 09:38:29;;;;;;;26.35;23.95;;;20.40;99.90;;;;;;5070295;28;20044;-77
2022/09/07 09:40:58;;;;;;;25.77;23.38;;;20.40;99.90;;;;;;5052630;28;20087;-77
2022/09/07 09:43:26;;;;;;;26.92;24.23;;;20.30;99.90;;;;;;5048939;28;20095;-77
2022/09/07 09:45:55;;;;;;;26.83;24.20;;;20.40;99.90;;;;;;5051659;28;20044;-78
2022/09/07 09:48:41;;;;;;;26.38;23.77;;;20.40;99.90;;;;;;5053815;28;20088;-77
2022/09/07 09:51:08;;;;;;;25.80;23.50;;;20.40;99.90;;;;;;5048613;28;20132;-77
2022/09/07 09:53:39;;;;;;;25.25;23.00;;;20.50;99.90;;;;;;5038323;28;20052;-78
2022/09/07 09:56:06;;;;;;;27.88;24.95;;;20.50;99.90;;;;;;5066618;28;20040;-78
2022/09/07 09:58:37;;;;;;;25.42;23.10;;;20.50;99.90;;;;;;5069930;28;20040;-77
2022/09/07 10:01:21;;;;;;;26.08;23.77;;;20.60;99.90;;;;;;5064903;28;20044;-77
2022/09/07 10:03:49;;;;;;;28.27;25.58;;;20.70;99.90;;;;;;5049624;28;20043;-78
2022/09/07 10:06:20;;;;;;;26.75;24.33;;;20.70;99.90;;;;;;5039083;28;20440;-77
2022/09/07 10:08:57;;;;;;;25.50;23.10;;;20.70;99.90;;;;;;5050590;28;20049;-77
2022/09/07 10:11:44;;;;;;;25.23;22.90;;;20.70;99.90;;;;;;5063635;28;20044;-77
2022/09/07 10:14:18;;;;;;;;;;;20.80;99.90;;;;;;5051946;28;20151;-77
2022/09/07 10:16:44;;;;;;;23.13;20.75;;;20.80;99.90;;;;;;5072061;28;19963;-77
2022/09/07 10:19:33;;;;;;;24.08;21.88;;;20.90;99.90;;;;;;5068622;28;20049;-78
2022/09/07 10:22:03;;;;;;;21.60;19.60;;;21.00;99.90;;;;;;5067969;28;20081;-76
2022/09/07 10:24:38;;;;;;;23.45;21.00;;;21.10;99.90;;;;;;5068238;28;20044;-77
2022/09/07 10:27:39;;;;;;;22.48;20.48;;;21.20;99.90;;;;;;5048864;28;20051;-77
2022/09/07 10:30:14;;;;;;;22.90;20.80;;;21.30;99.90;;;;;;5044990;28;20037;-77
2022/09/07 10:33:02;;;;;;;21.42;19.42;;;21.30;99.90;;;;;;5052061;28;20586;-76
2022/09/07 10:35:34;;;;;;;23.55;21.45;;;21.40;99.90;;;;;;5049654;28;20043;-76
2022/09/07 10:38:19;;;;;;;22.13;20.05;;;21.40;99.90;;;;;;5051149;28;20072;-76
2022/09/07 10:40:55;;;;;;;22.85;20.75;;;21.40;99.90;;;;;;5051324;28;20135;-74
2022/09/07 10:43:42;;;;;;;21.50;19.52;;;21.40;99.90;;;;;;5069030;28;20056;-75
2022/09/07 10:46:25;;;;;;;22.25;20.23;;;21.50;99.90;;;;;;5064320;28;20079;-74
2022/09/07 10:49:22;;;;;;;21.48;19.25;;;21.50;99.90;;;;;;5052425;28;20048;-74
2022/09/07 10:51:57;;;;;;;21.08;19.08;;;21.50;99.90;;;;;;5069470;28;20049;-74
2022/09/07 10:54:38;;;;;;;20.52;18.63;;;21.50;99.90;;;;;;5050927;28;20092;-73
2022/09/07 10:57:12;;;;;;;20.55;18.55;;;21.40;99.90;;;;;;5068944;28;20044;-74
2022/09/07 11:00:01;;;;;;;19.67;17.77;;;21.40;99.90;;;;;;5049634;28;20040;-76
2022/09/07 11:02:55;;;;;;;20.38;18.45;;;21.40;99.90;;;;;;5064709;28;20572;-74
2022/09/07 11:05:32;;;;;;;21.40;19.10;;;21.50;99.90;;;;;;5067395;28;20044;-76
2022/09/07 11:08:13;;;;;;;20.95;18.90;;;21.40;99.90;;;;;;5045006;28;20052;-79
2022/09/07 11:10:57;;;;;;;20.75;18.95;;;21.50;99.90;;;;;;5044084;28;20483;-77
2022/09/07 11:13:26;;;;;;;20.08;18.17;;;21.70;99.90;;;;;;5066965;28;20135;-77
2022/09/07 11:15:57;;;;;;;18.67;16.98;;;21.70;99.90;;;;;;5047936;28;20047;-75
2022/09/07 11:18:35;;;;;;;20.27;18.30;;;21.80;99.90;;;;;;5063008;28;20044;-77
2022/09/07 11:21:03;;;;;;;21.13;19.08;;;21.90;99.90;;;;;;5059511;28;20049;-77
2022/09/07 11:23:40;;;;;;;19.05;17.25;;;21.90;99.90;;;;;;5048208;28;20510;-78
2022/09/07 11:26:19;;;;;;;17.67;16.05;;;21.90;99.90;;;;;;5062667;28;20049;-79
2022/09/07 11:28:45;;;;;;;16.42;14.98;;;22.00;99.90;;;;;;5047633;28;20052;-77
2022/09/07 11:31:36;;;;;;;15.93;14.30;;;22.20;99.90;;;;;;5065408;28;20058;-76
2022/09/07 11:34:04;;;;;;;16.75;15.07;;;22.40;99.90;;;;;;5067782;28;20055;-75
2022/09/07 11:36:43;;;;;;;16.73;15.23;;;22.40;99.90;;;;;;5067338;28;20037;-75
2022/09/07 11:39:29;;;;;;;18.13;16.52;;;22.40;99.90;;;;;;5066779;28;20091;-75
2022/09/07 11:41:59;;;;;;;18.25;16.52;;;22.40;99.90;;;;;;5068038;28;20084;-76
2022/09/07 11:44:37;;;;;;;18.13;16.40;;;22.30;99.90;;;;;;5049055;28;20123;-74
2022/09/07 11:47:39;;;;;;;18.08;16.38;;;22.30;99.90;;;;;;5060069;28;20442;-75
2022/09/07 11:50:15;;;;;;;17.63;15.93;;;22.30;99.90;;;;;;5048080;28;20037;-72
2022/09/07 11:52:47;;;;;;;17.25;15.57;;;22.30;99.90;;;;;;5060326;28;20044;-74
2022/09/07 11:55:27;;;;;;;17.63;16.02;;;22.30;99.90;;;;;;5065577;28;20048;-77
2022/09/07 11:58:11;;;;;;;14.60;13.30;;;22.40;99.90;;;;;;5046025;28;20064;-78
2022/09/07 12:00:39;;;;;;;13.52;12.23;;;22.50;99.90;;;;;;5036875;28;20480;-76
2022/09/07 12:03:29;;;;;;;15.38;13.77;;;22.60;99.90;;;;;;5059211;28;20109;-78
2022/09/07 12:06:12;;;;;;;16.05;13.35;;;22.70;99.90;;;;;;5036762;28;20055;-78
2022/09/07 12:09:11;;;;;;;14.13;12.93;;;22.70;99.90;;;;;;5030676;28;20652;-77
2022/09/07 12:11:59;;;;;;;13.23;12.00;;;22.80;99.90;;;;;;5055401;28;20049;-78
2022/09/07 12:14:42;;;;;;;13.85;12.38;;;23.00;99.90;;;;;;5062352;28;20040;-77
2022/09/07 12:17:22;;;;;;;14.98;13.57;;;23.10;99.90;;;;;;5057407;28;20101;-78
2022/09/07 12:20:18;;;;;;;13.50;12.27;;;23.10;99.90;;;;;;5025516;28;20092;-77
2022/09/07 12:23:03;;;;;;;13.38;12.15;;;23.20;99.90;;;;;;5046648;28;20037;-78
2022/09/07 12:25:32;;;;;;;14.23;12.82;;;23.30;99.90;;;;;;5055442;28;20067;-76
2022/09/07 12:27:59;;;;;;;14.90;13.50;;;23.40;99.90;;;;;;5040165;28;20037;-76
2022/09/07 12:30:25;;;;;;;13.20;11.90;;;23.40;99.90;;;;;;5044290;28;20576;-76
2022/09/07 12:32:52;;;;;;;13.75;12.52;;;23.40;99.90;;;;;;5053971;28;20095;-76
2022/09/07 12:35:40;;;;;;;11.98;10.77;;;23.40;99.90;;;;;;5057060;28;20076;-77
2022/09/07 12:38:17;;;;;;;11.10;10.10;;;23.50;99.90;;;;;;5043153;28;20051;-76
2022/09/07 12:40:58;;;;;;;11.25;10.13;;;23.50;99.90;;;;;;5032579;28;20048;-76
2022/09/07 12:43:31;;;;;;;10.30;9.30;;;23.50;99.90;;;;;;5030248;28;20141;-74
2022/09/07 12:45:59;;;;;;;10.68;9.68;;;23.50;99.90;;;;;;5066585;28;20444;-76
2022/09/07 12:48:30;;;;;;;10.70;9.52;;;23.50;99.90;;;;;;5050872;28;20045;-75
2022/09/07 12:51:11;;;;;;;10.52;9.43;;;23.60;99.90;;;;;;5052380;28;20097;-75
2022/09/07 12:54:16;;;;;;;11.23;10.23;;;23.50;99.90;;;;;;5057723;28;20048;-76
2022/09/07 12:56:58;;;;;;;11.20;10.07;;;23.50;99.90;;;;;;5045490;28;20660;-76
2022/09/07 13:00:07;;;;;;;10.60;9.60;;;23.60;99.90;;;;;;5023615;28;20087;-77
2022/09/07 13:03:07;;;;;;;10.07;9.07;;;23.60;99.90;;;;;;5036402;28;20495;-77
2022/09/07 13:05:45;;;;;;;10.07;9.07;;;23.60;99.90;;;;;;5063919;28;20053;-76